FXMM/MSU METAR and TAF weather

Enter ICAO airport designator
Station Type Date Time Source
FXMM METAR 2022/09/25 13:00 UTC NOAA

FXMM 251300Z 18006KT 9999 TSRA FEW035CB BKN035 19/14 Q1020 NOSIG


Station Type Date Time Source
FXMM Decoded METAR 2022/09/25 13:00 UTC NOAA

Maseru / Moshoeshoe, Lesotho (FXMM) 29-27S 027-33E
Sep 25, 2022 - 09:00 AM EDT / 2022.09.25 1300 UTC
Wind: from the S (180 degrees) at 7 MPH (6 KT):0
Visibility: greater than 7 mile(s):0
Sky conditions: mostly cloudy
Weather: rain with thunder; Cumulonimbus clouds observed
Temperature: 66 F (19 C)
Dew Point: 57 F (14 C)
Relative Humidity: 72%
Pressure (altimeter): 30.12 in. Hg (1020 hPa)
ob: FXMM 251300Z 18006KT 9999 TSRA FEW035CB BKN035 19/14 Q1020 NOSIG
cycle: 13

Station Type Date Time Source
FXMM TAF 2022/09/24 09:09 UTC NOAA

TAF TAF FXMM 240600Z 2409/2421 05010KT CAVOK
BECMG 2413/2415 29004KT 9999 FEW035

Example: see airport list